Time;durP1;ratioP1;P1;durP2;ratioP2;P2;SDS_P1;SDS_P2;PMS_P1;PMS_P2;Temp;Humidity;BMP_temperature;BMP_pressure;BME280_temperature;BME280_humidity;BME280_pressure;Samples;Min_cycle;Max_cycle;Signal;HPM_P1;HPM_P2
2022/04/16 00:01:19;;;;;;;7.57;2.80;;;;;;;;;;4934531;29;20415;-67
2022/04/16 00:03:51;;;;;;;5.93;2.50;;;;;;;;;;4934248;29;20056;-67
2022/04/16 00:06:25;;;;;;;9.13;2.45;;;;;;;;;;4933361;29;20436;-67
2022/04/16 00:08:57;;;;;;;5.20;2.08;;;;;;;;;;4920218;29;20063;-67
2022/04/16 00:11:30;;;;;;;5.43;2.42;;;;;;;;;;4903957;29;20064;-67
2022/04/16 00:14:03;;;;;;;5.60;1.98;;;;;;;;;;4914980;29;20068;-67
2022/04/16 00:16:34;;;;;;;6.63;2.40;;;;;;;;;;4898683;29;20060;-68
2022/04/16 00:19:08;;;;;;;5.70;2.40;;;;;;;;;;4914860;29;20622;-67
2022/04/16 00:21:40;;;;;;;6.35;2.42;;;;;;;;;;4934004;29;20055;-67
2022/04/16 00:24:11;;;;;;;6.72;2.65;;;;;;;;;;4934030;29;20067;-68
2022/04/16 00:26:41;;;;;;;6.07;2.70;;;;;;;;;;4951465;29;20584;-68
2022/04/16 00:29:12;;;;;;;7.63;2.75;;;;;;;;;;4968930;28;20059;-69
2022/04/16 00:31:45;;;;;;;5.97;2.03;;;;;;;;;;4952965;29;20063;-67
2022/04/16 00:34:15;;;;;;;10.10;2.40;;;;;;;;;;4952961;29;20519;-67
2022/04/16 00:36:47;;;;;;;7.82;2.53;;;;;;;;;;4953063;29;20063;-68
2022/04/16 00:39:18;;;;;;;7.45;2.47;;;;;;;;;;4952983;29;20066;-67
2022/04/16 00:41:50;;;;;;;6.97;2.28;;;;;;;;;;4953083;29;20062;-68
2022/04/16 00:44:21;;;;;;;6.93;2.22;;;;;;;;;;5003356;28;20062;-68
2022/04/16 00:46:51;;;;;;;9.00;2.20;;;;;;;;;;4972481;28;20058;-68
2022/04/16 00:49:23;;;;;;;9.68;2.58;;;;;;;;;;4968521;28;20078;-68
2022/04/16 00:51:53;;;;;;;8.52;3.00;;;;;;;;;;4983385;28;20061;-68
2022/04/16 00:54:24;;;;;;;11.40;2.45;;;;;;;;;;4991348;28;20450;-68
2022/04/16 00:56:55;;;;;;;5.35;2.30;;;;;;;;;;4991482;28;20058;-68
2022/04/16 00:59:26;;;;;;;10.48;2.95;;;;;;;;;;5013193;28;20057;-68
2022/04/16 01:01:59;;;;;;;5.38;2.30;;;;;;;;;;4981799;28;20058;-69
2022/04/16 01:04:30;;;;;;;7.25;2.60;;;;;;;;;;4994459;28;20068;-68
2022/04/16 01:07:01;;;;;;;6.18;2.97;;;;;;;;;;5010811;28;20057;-68
2022/04/16 01:09:32;;;;;;;7.97;2.58;;;;;;;;;;5010603;28;20054;-68
2022/04/16 01:12:04;;;;;;;7.82;2.50;;;;;;;;;;5011073;28;20049;-68
2022/04/16 01:14:34;;;;;;;6.43;2.75;;;;;;;;;;5010524;28;20061;-69
2022/04/16 01:17:05;;;;;;;9.27;2.42;;;;;;;;;;4977604;28;20057;-68
2022/04/16 01:19:41;;;;;;;5.88;2.45;;;;;;;;;;5010305;28;20046;-68
2022/04/16 01:22:14;;;;;;;10.48;2.75;;;;;;;;;;4983058;28;20061;-69
2022/04/16 01:24:48;;;;;;;8.45;3.03;;;;;;;;;;4958396;28;20046;-69
2022/04/16 01:27:19;;;;;;;6.88;2.65;;;;;;;;;;4991247;28;20101;-68
2022/04/16 01:29:53;;;;;;;7.97;2.65;;;;;;;;;;4951492;29;20058;-68
2022/04/16 01:32:25;;;;;;;6.82;2.38;;;;;;;;;;4920372;29;20065;-68
2022/04/16 01:34:55;;;;;;;5.75;2.92;;;;;;;;;;4970880;28;20047;-68
2022/04/16 01:37:33;;;;;;;7.65;2.72;;;;;;;;;;4939425;28;20058;-68
2022/04/16 01:40:12;;;;;;;7.78;2.88;;;;;;;;;;4970987;28;20102;-68
2022/04/16 01:42:46;;;;;;;9.35;2.75;;;;;;;;;;4949707;28;20055;-68
2022/04/16 01:45:18;;;;;;;6.57;2.78;;;;;;;;;;4951385;29;20062;-68
2022/04/16 01:47:50;;;;;;;8.60;2.38;;;;;;;;;;4951695;29;20427;-68
2022/04/16 01:50:22;;;;;;;7.25;2.95;;;;;;;;;;4935504;29;20062;-69
2022/04/16 01:52:54;;;;;;;6.70;2.85;;;;;;;;;;4935827;29;20071;-68
2022/04/16 01:55:24;;;;;;;5.32;2.75;;;;;;;;;;4931939;29;20052;-68
2022/04/16 01:57:55;;;;;;;6.63;3.03;;;;;;;;;;4913217;29;20044;-68
2022/04/16 02:00:27;;;;;;;6.15;2.65;;;;;;;;;;4927011;29;20060;-68
2022/04/16 02:02:58;;;;;;;4.32;2.35;;;;;;;;;;4909527;29;20059;-68
2022/04/16 02:05:28;;;;;;;7.57;2.70;;;;;;;;;;4894176;29;20056;-69
2022/04/16 02:07:59;;;;;;;5.68;2.80;;;;;;;;;;4894381;29;20061;-68
2022/04/16 02:10:30;;;;;;;5.20;2.13;;;;;;;;;;4894467;29;20060;-68
2022/04/16 02:13:01;;;;;;;8.57;2.38;;;;;;;;;;4903028;29;20056;-69
2022/04/16 02:15:31;;;;;;;6.55;2.58;;;;;;;;;;4894100;29;20061;-69
2022/04/16 02:18:02;;;;;;;5.45;2.10;;;;;;;;;;4925725;29;20053;-69
2022/04/16 02:20:35;;;;;;;5.70;2.00;;;;;;;;;;4893953;29;20063;-68
2022/04/16 02:23:06;;;;;;;5.22;2.35;;;;;;;;;;4894206;29;20064;-69
2022/04/16 02:25:42;;;;;;;6.45;2.20;;;;;;;;;;4894146;29;20064;-68
2022/04/16 02:28:12;;;;;;;6.53;2.03;;;;;;;;;;4893482;29;20061;-69
2022/04/16 02:30:43;;;;;;;6.88;2.55;;;;;;;;;;4894103;29;20061;-68
2022/04/16 02:33:14;;;;;;;5.22;2.88;;;;;;;;;;4915520;29;20420;-69
2022/04/16 02:35:45;;;;;;;7.38;2.03;;;;;;;;;;4931955;29;20067;-68
2022/04/16 02:38:16;;;;;;;5.88;2.15;;;;;;;;;;4943392;28;20539;-68
2022/04/16 02:40:47;;;;;;;7.63;2.47;;;;;;;;;;4959944;28;20058;-68
2022/04/16 02:43:19;;;;;;;7.22;2.90;;;;;;;;;;5009078;28;20058;-68
2022/04/16 02:48:39;;;;;;;4.70;2.00;;;;;;;;;;4992606;28;20454;-68
2022/04/16 02:51:12;;;;;;;9.65;3.05;;;;;;;;;;5052963;28;20052;-68
2022/04/16 02:53:43;;;;;;;6.20;2.47;;;;;;;;;;5048632;28;20049;-68
2022/04/16 02:56:14;;;;;;;7.68;2.25;;;;;;;;;;5048849;28;20057;-68
2022/04/16 02:58:44;;;;;;;6.72;2.50;;;;;;;;;;5048762;28;20057;-68
2022/04/16 03:01:15;;;;;;;7.32;2.63;;;;;;;;;;5015824;28;20056;-68
2022/04/16 03:03:46;;;;;;;5.28;2.53;;;;;;;;;;4999406;28;20057;-68
2022/04/16 03:06:17;;;;;;;4.43;2.20;;;;;;;;;;5048519;28;20057;-69
2022/04/16 03:08:47;;;;;;;5.10;2.25;;;;;;;;;;5048744;28;20056;-68
2022/04/16 03:11:18;;;;;;;6.88;3.33;;;;;;;;;;5032060;28;20053;-68
2022/04/16 03:13:49;;;;;;;7.65;2.08;;;;;;;;;;5048671;28;20045;-68
2022/04/16 03:19:08;;;;;;;5.65;2.40;;;;;;;;;;5048435;28;20056;-69
2022/04/16 03:21:39;;;;;;;4.07;2.10;;;;;;;;;;5048228;28;20057;-68
2022/04/16 03:24:10;;;;;;;8.18;2.55;;;;;;;;;;5031641;28;20053;-69
2022/04/16 03:26:42;;;;;;;7.90;2.55;;;;;;;;;;5015181;28;20097;-68
2022/04/16 03:29:13;;;;;;;;;;;;;;;;;;5048920;28;20049;-68
2022/04/16 03:31:43;;;;;;;5.47;2.30;;;;;;;;;;5046306;28;19936;-68
2022/04/16 03:34:14;;;;;;;6.28;2.45;;;;;;;;;;5011692;28;20065;-68
2022/04/16 03:36:44;;;;;;;6.03;2.25;;;;;;;;;;5028253;28;21133;-68
2022/04/16 03:39:15;;;;;;;5.68;2.60;;;;;;;;;;5029302;28;20064;-68
2022/04/16 03:41:46;;;;;;;5.28;2.35;;;;;;;;;;5032209;28;20052;-69
2022/04/16 03:44:17;;;;;;;4.47;2.22;;;;;;;;;;5032033;28;20539;-68
2022/04/16 03:46:47;;;;;;;5.82;2.42;;;;;;;;;;5032115;28;20060;-68
2022/04/16 03:49:18;;;;;;;5.90;2.22;;;;;;;;;;5031947;28;20060;-68
2022/04/16 03:51:48;;;;;;;6.47;2.88;;;;;;;;;;5031845;28;20544;-68
2022/04/16 04:00:00;;;;;;;4.82;2.25;;;;;;;;;;5031760;28;20057;-69
2022/04/16 04:02:39;;;;;;;10.20;2.40;;;;;;;;;;5032083;28;20062;-69
2022/04/16 04:05:10;;;;;;;5.35;2.40;;;;;;;;;;5031846;28;20045;-68
2022/04/16 04:07:41;;;;;;;5.30;2.53;;;;;;;;;;5031691;28;20053;-69
2022/04/16 04:10:13;;;;;;;8.00;2.33;;;;;;;;;;5031616;28;20057;-69
2022/04/16 04:12:44;;;;;;;5.90;2.63;;;;;;;;;;5048688;28;20059;-68
2022/04/16 04:15:15;;;;;;;7.03;2.22;;;;;;;;;;5051482;28;20400;-69
2022/04/16 04:17:46;;;;;;;7.63;2.72;;;;;;;;;;4992125;28;20054;-69
2022/04/16 04:20:17;;;;;;;8.23;2.70;;;;;;;;;;4992068;28;20050;-70
2022/04/16 04:22:47;;;;;;;7.28;2.53;;;;;;;;;;4991799;28;20061;-69
2022/04/16 04:25:18;;;;;;;4.13;2.15;;;;;;;;;;4976125;28;20054;-69
2022/04/16 04:27:49;;;;;;;6.00;2.72;;;;;;;;;;4992137;28;20062;-69
2022/04/16 04:30:20;;;;;;;5.90;2.50;;;;;;;;;;5009281;28;20054;-69
2022/04/16 04:32:51;;;;;;;4.85;2.50;;;;;;;;;;5011521;28;20050;-69
2022/04/16 04:35:21;;;;;;;7.50;2.50;;;;;;;;;;5011437;28;20549;-70
2022/04/16 04:37:51;;;;;;;5.85;2.15;;;;;;;;;;5011411;28;20050;-69
2022/04/16 04:40:23;;;;;;;4.32;2.30;;;;;;;;;;5011234;28;20069;-68
2022/04/16 04:42:54;;;;;;;6.32;2.28;;;;;;;;;;5011367;28;20050;-68
2022/04/16 04:45:25;;;;;;;4.75;2.20;;;;;;;;;;5011092;28;20046;-69
2022/04/16 04:47:55;;;;;;;4.95;2.17;;;;;;;;;;5011182;28;20057;-69
2022/04/16 04:50:26;;;;;;;5.10;2.65;;;;;;;;;;4994160;28;20069;-69
2022/04/16 04:52:57;;;;;;;4.93;2.33;;;;;;;;;;5010777;28;20166;-69
2022/04/16 04:55:29;;;;;;;4.60;2.28;;;;;;;;;;5044105;28;20052;-68
2022/04/16 04:57:59;;;;;;;4.53;2.03;;;;;;;;;;5070975;28;20095;-68
2022/04/16 05:00:30;;;;;;;5.63;2.60;;;;;;;;;;5037628;28;20048;-69
2022/04/16 05:03:01;;;;;;;4.35;1.88;;;;;;;;;;5037696;28;20067;-68
2022/04/16 05:05:32;;;;;;;4.25;2.42;;;;;;;;;;5037480;28;20049;-69
2022/04/16 05:08:02;;;;;;;4.75;2.30;;;;;;;;;;5072869;28;20044;-69
2022/04/16 05:10:33;;;;;;;7.75;2.25;;;;;;;;;;5072674;28;20045;-69
2022/04/16 05:13:04;;;;;;;4.63;2.33;;;;;;;;;;5072859;28;20048;-69
2022/04/16 05:15:34;;;;;;;6.68;3.10;;;;;;;;;;5072635;28;20048;-69
2022/04/16 05:18:05;;;;;;;5.30;2.35;;;;;;;;;;5072548;28;20045;-68
2022/04/16 05:20:36;;;;;;;5.90;2.10;;;;;;;;;;5072439;28;20059;-68
2022/04/16 05:23:07;;;;;;;6.32;2.63;;;;;;;;;;5072539;28;20044;-69
2022/04/16 05:25:37;;;;;;;5.68;2.33;;;;;;;;;;5072150;28;20054;-68
2022/04/16 05:28:09;;;;;;;9.27;2.42;;;;;;;;;;5054779;28;20044;-69
2022/04/16 05:30:48;;;;;;;10.75;2.67;;;;;;;;;;5029922;28;20081;-69
2022/04/16 05:36:08;;;;;;;5.05;2.30;;;;;;;;;;4996416;28;20053;-70
2022/04/16 05:38:38;;;;;;;5.68;2.92;;;;;;;;;;5010034;28;20061;-69
2022/04/16 05:41:09;;;;;;;6.13;2.60;;;;;;;;;;4978262;28;20061;-69
2022/04/16 05:43:40;;;;;;;6.35;2.28;;;;;;;;;;5010159;28;20057;-69
2022/04/16 05:46:11;;;;;;;4.57;2.05;;;;;;;;;;4977480;28;20061;-69
2022/04/16 05:48:41;;;;;;;6.65;2.47;;;;;;;;;;5010140;28;20526;-69
2022/04/16 05:51:14;;;;;;;6.63;2.78;;;;;;;;;;4977580;28;20050;-69
2022/04/16 05:53:48;;;;;;;6.45;2.92;;;;;;;;;;5009622;28;20062;-69
2022/04/16 05:56:20;;;;;;;5.68;2.60;;;;;;;;;;4977151;28;20062;-69
2022/04/16 05:58:50;;;;;;;10.43;2.92;;;;;;;;;;4994288;28;20588;-71
2022/04/16 06:01:21;;;;;;;9.13;3.20;;;;;;;;;;4977187;28;20049;-69
2022/04/16 06:03:52;;;;;;;6.35;2.83;;;;;;;;;;4977379;28;20054;-70
2022/04/16 06:06:23;;;;;;;6.72;2.72;;;;;;;;;;4960856;28;20046;-69
2022/04/16 06:08:53;;;;;;;3.92;2.03;;;;;;;;;;5009697;28;20057;-69
2022/04/16 06:11:28;;;;;;;6.28;2.67;;;;;;;;;;5009784;28;20513;-70
2022/04/16 06:13:59;;;;;;;5.88;2.60;;;;;;;;;;5001228;28;20065;-69
2022/04/16 06:16:30;;;;;;;5.05;2.42;;;;;;;;;;5001149;28;20057;-69
2022/04/16 06:19:00;;;;;;;6.03;3.05;;;;;;;;;;5001032;28;20045;-69
2022/04/16 06:21:31;;;;;;;6.50;2.53;;;;;;;;;;5049019;28;20521;-69
2022/04/16 06:24:02;;;;;;;7.00;2.85;;;;;;;;;;5000190;28;20057;-69
2022/04/16 06:26:32;;;;;;;7.47;2.55;;;;;;;;;;5049097;28;20642;-69
2022/04/16 06:29:03;;;;;;;7.20;2.42;;;;;;;;;;5028993;28;20068;-69
2022/04/16 06:31:34;;;;;;;8.15;2.47;;;;;;;;;;5029117;28;20555;-69
2022/04/16 06:34:04;;;;;;;6.05;2.85;;;;;;;;;;5029035;28;20064;-69
2022/04/16 06:36:35;;;;;;;6.00;2.50;;;;;;;;;;4996299;28;20536;-69
2022/04/16 06:39:05;;;;;;;5.90;2.60;;;;;;;;;;5028928;28;20054;-70
2022/04/16 06:41:36;;;;;;;5.47;2.50;;;;;;;;;;5028967;28;20517;-69
2022/04/16 06:44:07;;;;;;;4.38;2.17;;;;;;;;;;4947591;28;20046;-69
2022/04/16 06:46:38;;;;;;;5.85;2.78;;;;;;;;;;5028770;28;20121;-69
2022/04/16 06:49:08;;;;;;;7.55;2.50;;;;;;;;;;4989393;28;20061;-69
2022/04/16 06:51:39;;;;;;;5.97;2.78;;;;;;;;;;4979761;28;20517;-70
2022/04/16 06:54:10;;;;;;;5.30;2.45;;;;;;;;;;4989449;28;20051;-69
2022/04/16 06:56:41;;;;;;;5.65;2.40;;;;;;;;;;4989481;28;20058;-69
2022/04/16 06:59:12;;;;;;;6.93;2.20;;;;;;;;;;4989736;28;20097;-69
2022/04/16 07:01:42;;;;;;;5.00;2.13;;;;;;;;;;4989476;28;20062;-69
2022/04/16 07:04:13;;;;;;;4.32;2.05;;;;;;;;;;4989658;28;20437;-69
2022/04/16 07:06:44;;;;;;;6.20;2.30;;;;;;;;;;4999388;28;20082;-69
2022/04/16 07:09:14;;;;;;;3.78;1.92;;;;;;;;;;4989144;28;20529;-69
2022/04/16 07:11:45;;;;;;;5.70;2.13;;;;;;;;;;4989242;28;20054;-69
2022/04/16 07:14:16;;;;;;;10.77;2.25;;;;;;;;;;4990181;28;20058;-69
2022/04/16 07:16:46;;;;;;;5.38;1.85;;;;;;;;;;4993227;28;20065;-69
2022/04/16 07:19:17;;;;;;;4.53;2.13;;;;;;;;;;4993001;28;20046;-69
2022/04/16 07:21:48;;;;;;;5.13;2.10;;;;;;;;;;4992967;28;20058;-70
2022/04/16 07:24:18;;;;;;;6.53;2.00;;;;;;;;;;4993202;28;20054;-69
2022/04/16 07:26:49;;;;;;;4.57;2.10;;;;;;;;;;4983264;28;20398;-70
2022/04/16 07:29:20;;;;;;;5.20;2.20;;;;;;;;;;4997351;28;20049;-69
2022/04/16 07:31:51;;;;;;;8.13;2.20;;;;;;;;;;4983523;28;20068;-69
2022/04/16 07:34:22;;;;;;;6.10;2.95;;;;;;;;;;5032256;28;20065;-70
2022/04/16 07:36:53;;;;;;;6.30;2.38;;;;;;;;;;5012113;28;20130;-70
2022/04/16 07:39:24;;;;;;;4.68;2.22;;;;;;;;;;4979905;28;20056;-69
2022/04/16 07:41:54;;;;;;;5.13;1.92;;;;;;;;;;5012367;28;20057;-70
2022/04/16 07:44:25;;;;;;;5.55;1.90;;;;;;;;;;4980012;28;20587;-69
2022/04/16 07:46:55;;;;;;;4.38;1.77;;;;;;;;;;5012064;28;20061;-70
2022/04/16 07:49:26;;;;;;;5.38;2.03;;;;;;;;;;5012178;28;20057;-70
2022/04/16 07:51:57;;;;;;;6.15;2.10;;;;;;;;;;5012158;28;20573;-70
2022/04/16 07:54:28;;;;;;;4.53;2.17;;;;;;;;;;5012292;28;20057;-70
2022/04/16 07:56:58;;;;;;;4.57;2.20;;;;;;;;;;5011941;28;20045;-70
2022/04/16 07:59:29;;;;;;;5.28;1.83;;;;;;;;;;5012384;28;20061;-70
2022/04/16 08:02:00;;;;;;;4.07;1.95;;;;;;;;;;5011717;28;20046;-70
2022/04/16 08:04:31;;;;;;;6.35;1.90;;;;;;;;;;5006592;28;20697;-70
2022/04/16 08:07:01;;;;;;;3.22;1.67;;;;;;;;;;5031413;28;20060;-70
2022/04/16 08:09:32;;;;;;;4.43;2.03;;;;;;;;;;4967237;28;20054;-71
2022/04/16 08:12:02;;;;;;;4.38;1.90;;;;;;;;;;5031529;28;20061;-69
2022/04/16 08:14:33;;;;;;;5.60;2.08;;;;;;;;;;5012621;28;20067;-70
2022/04/16 08:17:04;;;;;;;6.93;1.73;;;;;;;;;;5073972;28;20037;-70
2022/04/16 08:19:35;;;;;;;6.03;2.15;;;;;;;;;;5072654;28;20060;-70
2022/04/16 08:22:07;;;;;;;4.50;2.10;;;;;;;;;;5073709;28;20043;-69
2022/04/16 08:24:40;;;;;;;4.47;2.20;;;;;;;;;;5073604;28;20480;-70
2022/04/16 08:27:11;;;;;;;3.15;1.58;;;;;;;;;;5029661;28;20413;-69
2022/04/16 08:29:42;;;;;;;3.75;1.60;;;;;;;;;;5014770;28;20409;-69
2022/04/16 08:32:12;;;;;;;4.22;1.90;;;;;;;;;;5011317;28;20080;-70
2022/04/16 08:34:52;;;;;;;4.13;1.60;;;;;;;;;;4994774;28;20089;-69
2022/04/16 08:37:23;;;;;;;5.13;2.13;;;;;;;;;;4995355;28;20058;-69
2022/04/16 08:39:53;;;;;;;3.00;1.70;;;;;;;;;;5011383;28;20054;-69
2022/04/16 08:42:24;;;;;;;7.30;2.30;;;;;;;;;;4994858;28;20152;-69
2022/04/16 08:44:56;;;;;;;3.55;1.70;;;;;;;;;;5011237;28;20437;-69
2022/04/16 08:47:27;;;;;;;5.32;2.13;;;;;;;;;;5011163;28;20050;-69
2022/04/16 08:50:01;;;;;;;3.15;1.63;;;;;;;;;;4994816;28;20054;-69
2022/04/16 08:52:34;;;;;;;8.52;1.80;;;;;;;;;;5011027;28;20058;-69
2022/04/16 08:55:09;;;;;;;4.25;1.90;;;;;;;;;;4962441;28;20054;-69
2022/04/16 08:57:41;;;;;;;3.78;1.65;;;;;;;;;;5010936;28;20073;-70
2022/04/16 09:00:13;;;;;;;4.32;2.38;;;;;;;;;;5010994;28;20057;-70
2022/04/16 09:02:58;;;;;;;5.60;2.40;;;;;;;;;;4995076;28;20456;-69
2022/04/16 09:05:30;;;;;;;3.97;2.00;;;;;;;;;;5025981;28;20049;-70
2022/04/16 09:08:05;;;;;;;6.65;2.60;;;;;;;;;;5014470;28;20060;-69
2022/04/16 09:10:36;;;;;;;5.80;2.67;;;;;;;;;;5013740;28;20475;-71
2022/04/16 09:13:07;;;;;;;8.15;3.92;;;;;;;;;;5045034;28;20530;-69
2022/04/16 09:15:38;;;;;;;17.77;8.45;;;;;;;;;;5050374;28;20509;-70
2022/04/16 09:18:09;;;;;;;12.45;7.03;;;;;;;;;;5033930;28;20053;-69
2022/04/16 09:20:41;;;;;;;15.82;7.35;;;;;;;;;;5016927;28;20421;-70
2022/04/16 09:23:22;;;;;;;11.93;6.75;;;;;;;;;;5010434;28;20084;-70
2022/04/16 09:25:56;;;;;;;14.38;7.70;;;;;;;;;;4978026;28;20163;-69
2022/04/16 09:28:26;;;;;;;12.43;7.22;;;;;;;;;;5010536;28;20065;-69
2022/04/16 09:30:57;;;;;;;15.05;8.02;;;;;;;;;;4977581;28;20061;-70
2022/04/16 09:33:37;;;;;;;7.35;3.63;;;;;;;;;;5010343;28;20057;-69
2022/04/16 09:36:08;;;;;;;8.20;4.15;;;;;;;;;;5010161;28;20057;-69
2022/04/16 09:38:38;;;;;;;7.10;3.30;;;;;;;;;;5009785;28;20065;-68
2022/04/16 09:41:09;;;;;;;5.57;2.50;;;;;;;;;;5010170;28;20052;-69
2022/04/16 09:43:39;;;;;;;9.68;2.58;;;;;;;;;;4993715;28;20045;-69
2022/04/16 09:46:12;;;;;;;10.85;2.22;;;;;;;;;;5010061;28;20050;-68
2022/04/16 09:48:45;;;;;;;6.05;2.30;;;;;;;;;;5010093;28;20054;-69
2022/04/16 09:51:19;;;;;;;4.45;1.95;;;;;;;;;;5010131;28;20057;-69
2022/04/16 09:53:53;;;;;;;4.28;2.08;;;;;;;;;;5009899;28;20058;-69
2022/04/16 09:56:28;;;;;;;4.65;1.90;;;;;;;;;;4931951;29;20113;-69
2022/04/16 09:59:03;;;;;;;4.70;2.50;;;;;;;;;;4902512;29;20051;-70
2022/04/16 10:01:34;;;;;;;5.72;2.33;;;;;;;;;;4925278;29;20059;-69
2022/04/16 10:04:09;;;;;;;7.50;2.92;;;;;;;;;;4917015;29;20052;-68
2022/04/16 10:06:42;;;;;;;9.13;3.60;;;;;;;;;;4932245;29;20447;-69
2022/04/16 10:09:17;;;;;;;4.93;2.63;;;;;;;;;;4932058;29;20539;-69
2022/04/16 10:15:07;;;;;;;6.90;3.58;;;;;;;;;;4916133;29;20097;-69
2022/04/16 10:17:51;;;;;;;5.60;2.83;;;;;;;;;;4913421;29;20096;-69
2022/04/16 10:20:23;;;;;;;7.63;2.70;;;;;;;;;;4914946;29;20056;-69
2022/04/16 10:23:05;;;;;;;6.18;2.55;;;;;;;;;;4932037;29;20056;-69
2022/04/16 10:25:42;;;;;;;7.32;2.53;;;;;;;;;;4932221;29;20500;-69
2022/04/16 10:28:23;;;;;;;5.25;2.40;;;;;;;;;;4931838;29;20174;-69
2022/04/16 10:30:55;;;;;;;5.95;2.63;;;;;;;;;;4932087;29;20056;-69
2022/04/16 10:33:28;;;;;;;4.60;1.95;;;;;;;;;;4946732;28;20053;-68
2022/04/16 10:36:02;;;;;;;;;;;;;;;;;;4970375;28;20503;-69
2022/04/16 10:38:45;;;;;;;4.43;1.88;;;;;;;;;;4969921;28;19929;-70
2022/04/16 10:41:20;;;;;;;6.68;1.85;;;;;;;;;;4970142;28;20515;-69
2022/04/16 10:44:01;;;;;;;5.40;2.42;;;;;;;;;;4950329;29;20071;-69
2022/04/16 10:46:47;;;;;;;7.53;2.92;;;;;;;;;;4936103;28;20446;-69
2022/04/16 10:49:20;;;;;;;6.82;2.65;;;;;;;;;;4969448;28;20582;-69
2022/04/16 10:51:52;;;;;;;7.03;2.97;;;;;;;;;;4953043;28;20061;-68
2022/04/16 10:54:34;;;;;;;7.07;3.15;;;;;;;;;;4953932;28;20050;-68
2022/04/16 10:57:08;;;;;;;5.90;2.72;;;;;;;;;;4937900;28;20062;-68
2022/04/16 10:59:40;;;;;;;6.55;2.70;;;;;;;;;;4970123;28;20435;-69
2022/04/16 11:02:25;;;;;;;6.15;2.83;;;;;;;;;;4969814;28;20065;-68
2022/04/16 11:05:12;;;;;;;7.10;3.15;;;;;;;;;;4969992;28;20055;-68
2022/04/16 11:07:46;;;;;;;5.00;2.72;;;;;;;;;;4969967;28;20152;-68
2022/04/16 11:10:23;;;;;;;5.90;2.80;;;;;;;;;;4969688;28;20053;-69
2022/04/16 11:12:54;;;;;;;4.70;2.60;;;;;;;;;;4970151;28;20059;-68
2022/04/16 11:15:26;;;;;;;10.73;2.92;;;;;;;;;;4969609;28;20054;-68
2022/04/16 11:17:58;;;;;;;6.03;2.78;;;;;;;;;;4989145;28;20557;-69
2022/04/16 11:20:29;;;;;;;10.35;2.90;;;;;;;;;;5015832;28;20053;-69
2022/04/16 11:23:01;;;;;;;7.80;3.03;;;;;;;;;;5048481;28;20045;-69
2022/04/16 11:34:14;;;;;;;6.25;3.00;;;;;;;;;;5048202;28;20397;-68
2022/04/16 11:34:17;;;;;;;7.75;3.33;;;;;;;;;;5048178;28;20524;-68
2022/04/16 11:36:50;;;;;;;;;;;;;;;;;;5015872;28;20053;-68
2022/04/16 11:39:24;;;;;;;12.55;6.45;;;;;;;;;;5048102;28;19920;-68
2022/04/16 11:42:00;;;;;;;7.88;3.80;;;;;;;;;;5032116;28;20416;-67
2022/04/16 11:45:06;;;;;;;;;;;;;;;;;;;;;
2022/04/16 11:47:27;;;;;;;14.55;4.93;;;;;;;;;;4994629;28;20418;-68
2022/04/16 11:50:05;;;;;;;12.80;6.07;;;;;;;;;;4975911;28;20041;-68
2022/04/16 11:52:37;;;;;;;11.52;5.80;;;;;;;;;;5008531;28;20058;-68
2022/04/16 11:55:21;;;;;;;13.73;5.32;;;;;;;;;;4956456;28;20544;-68
2022/04/16 11:57:52;;;;;;;11.30;4.78;;;;;;;;;;4957024;28;20058;-69
2022/04/16 12:00:23;;;;;;;11.70;5.30;;;;;;;;;;4990035;28;20541;-68
2022/04/16 12:02:58;;;;;;;11.38;5.95;;;;;;;;;;4992627;28;20058;-67
2022/04/16 12:05:30;;;;;;;9.57;4.88;;;;;;;;;;4960712;28;20061;-68
2022/04/16 12:08:00;;;;;;;9.50;4.18;;;;;;;;;;4976015;28;20046;-68
2022/04/16 12:10:31;;;;;;;10.93;4.80;;;;;;;;;;4992432;28;20054;-67
2022/04/16 12:13:12;;;;;;;10.95;4.60;;;;;;;;;;4992204;28;20070;-68
2022/04/16 12:15:46;;;;;;;11.05;4.55;;;;;;;;;;4972350;28;20602;-68
2022/04/16 12:18:22;;;;;;;9.90;4.30;;;;;;;;;;4932077;28;20058;-68
2022/04/16 12:20:53;;;;;;;12.60;5.72;;;;;;;;;;4969357;28;20073;-69
2022/04/16 12:23:25;;;;;;;8.57;4.20;;;;;;;;;;4992429;28;20046;-67
2022/04/16 12:26:12;;;;;;;9.40;4.07;;;;;;;;;;4992170;28;20054;-68
2022/04/16 12:28:51;;;;;;;11.85;4.28;;;;;;;;;;4992164;28;20042;-68
2022/04/16 12:31:27;;;;;;;10.52;3.75;;;;;;;;;;4991936;28;20049;-67
2022/04/16 12:33:58;;;;;;;9.68;3.90;;;;;;;;;;4998641;28;20093;-67
2022/04/16 12:36:29;;;;;;;8.05;2.85;;;;;;;;;;5011058;28;20602;-67
2022/04/16 12:39:00;;;;;;;8.10;2.25;;;;;;;;;;5011465;28;20152;-67
2022/04/16 12:41:30;;;;;;;5.72;1.85;;;;;;;;;;4972145;28;20391;-67
2022/04/16 12:44:01;;;;;;;6.93;2.30;;;;;;;;;;4940137;28;20400;-68
2022/04/16 12:46:32;;;;;;;12.73;6.78;;;;;;;;;;4971699;28;20051;-67
2022/04/16 12:49:02;;;;;;;6.00;2.63;;;;;;;;;;4972244;28;20439;-67
2022/04/16 12:51:33;;;;;;;12.13;6.32;;;;;;;;;;4939943;28;20051;-66
2022/04/16 12:54:04;;;;;;;10.68;5.05;;;;;;;;;;4954659;28;20066;-66
2022/04/16 12:56:34;;;;;;;7.97;3.28;;;;;;;;;;4975772;28;20042;-66
2022/04/16 12:59:05;;;;;;;7.95;4.70;;;;;;;;;;4991451;28;20062;-66
2022/04/16 13:01:36;;;;;;;6.20;2.22;;;;;;;;;;4933123;29;20055;-66
2022/04/16 13:04:07;;;;;;;7.40;2.95;;;;;;;;;;4917741;29;20060;-66
2022/04/16 13:06:38;;;;;;;7.32;2.85;;;;;;;;;;4933352;29;20056;-67
2022/04/16 13:09:08;;;;;;;9.48;2.40;;;;;;;;;;4933359;29;20051;-66
2022/04/16 13:11:40;;;;;;;6.68;2.15;;;;;;;;;;4932481;29;20458;-67
2022/04/16 13:14:10;;;;;;;5.90;3.00;;;;;;;;;;4923465;29;20056;-66
2022/04/16 13:16:41;;;;;;;5.10;1.77;;;;;;;;;;4913758;29;20083;-66
2022/04/16 13:19:12;;;;;;;9.15;4.85;;;;;;;;;;4927211;29;20196;-66
2022/04/16 13:21:44;;;;;;;5.40;1.70;;;;;;;;;;4952441;29;20058;-66
2022/04/16 13:24:17;;;;;;;5.18;1.52;;;;;;;;;;4983022;28;20058;-66
2022/04/16 13:26:48;;;;;;;4.15;1.92;;;;;;;;;;5010559;28;20061;-66
2022/04/16 13:29:18;;;;;;;4.07;1.40;;;;;;;;;;4994360;28;20053;-66
2022/04/16 13:31:52;;;;;;;6.03;1.90;;;;;;;;;;4993793;28;20506;-66
2022/04/16 13:34:33;;;;;;;5.97;3.63;;;;;;;;;;5010391;28;20038;-66
2022/04/16 13:37:05;;;;;;;4.80;1.38;;;;;;;;;;5010212;28;20049;-66
2022/04/16 13:42:25;;;;;;;6.72;2.88;;;;;;;;;;5072362;28;20480;-66
2022/04/16 13:44:55;;;;;;;3.97;2.35;;;;;;;;;;5072235;28;20408;-66
2022/04/16 13:47:26;;;;;;;3.50;1.63;;;;;;;;;;5036940;28;20063;-66
2022/04/16 13:49:57;;;;;;;6.03;1.52;;;;;;;;;;5072196;28;20415;-66
2022/04/16 13:52:28;;;;;;;4.60;1.60;;;;;;;;;;5029391;28;20045;-66
2022/04/16 13:54:58;;;;;;;5.80;1.48;;;;;;;;;;4990200;28;20061;-66
2022/04/16 13:57:29;;;;;;;3.78;1.85;;;;;;;;;;4989907;28;20046;-67
2022/04/16 13:59:59;;;;;;;5.68;2.50;;;;;;;;;;4990549;28;20133;-66
2022/04/16 14:02:43;;;;;;;3.35;1.30;;;;;;;;;;4961105;28;20050;-66
2022/04/16 14:08:02;;;;;;;3.90;1.35;;;;;;;;;;4989932;28;20061;-67
2022/04/16 14:10:33;;;;;;;6.60;1.85;;;;;;;;;;4989979;28;20053;-66
2022/04/16 14:13:04;;;;;;;3.92;1.52;;;;;;;;;;4989967;28;20069;-67
2022/04/16 14:15:36;;;;;;;5.70;2.47;;;;;;;;;;4989729;28;20050;-67
2022/04/16 14:18:07;;;;;;;4.35;1.48;;;;;;;;;;4990138;28;20050;-67
2022/04/16 14:20:38;;;;;;;5.00;1.50;;;;;;;;;;4989535;28;20053;-66
2022/04/16 14:23:08;;;;;;;3.85;1.55;;;;;;;;;;4973100;28;20061;-67
2022/04/16 14:25:39;;;;;;;2.92;1.10;;;;;;;;;;4989691;28;20065;-66
2022/04/16 14:28:09;;;;;;;3.28;1.23;;;;;;;;;;4990159;28;20414;-66
2022/04/16 14:30:41;;;;;;;4.78;1.45;;;;;;;;;;5004037;28;20054;-67
2022/04/16 14:33:12;;;;;;;4.10;1.23;;;;;;;;;;5023715;28;20053;-66
2022/04/16 14:35:45;;;;;;;3.15;1.30;;;;;;;;;;5043711;28;20061;-66
2022/04/16 14:38:17;;;;;;;3.15;1.20;;;;;;;;;;5049120;28;20037;-66
2022/04/16 14:40:48;;;;;;;4.68;1.60;;;;;;;;;;5032586;28;20538;-66
2022/04/16 14:43:19;;;;;;;2.67;1.00;;;;;;;;;;5015720;28;20168;-66
2022/04/16 14:45:50;;;;;;;3.58;1.48;;;;;;;;;;5061132;28;20079;-66
2022/04/16 14:48:22;;;;;;;5.57;2.00;;;;;;;;;;5036252;28;20412;-66
2022/04/16 14:50:53;;;;;;;2.55;0.98;;;;;;;;;;5071019;28;20041;-66
2022/04/16 14:53:24;;;;;;;3.60;1.38;;;;;;;;;;5052559;28;20057;-66
2022/04/16 14:55:54;;;;;;;3.25;1.05;;;;;;;;;;5071107;28;20393;-67
2022/04/16 14:58:25;;;;;;;4.45;1.75;;;;;;;;;;5036571;28;20057;-67
2022/04/16 15:00:56;;;;;;;3.55;2.45;;;;;;;;;;5070951;28;20056;-67
2022/04/16 15:03:27;;;;;;;3.17;1.40;;;;;;;;;;5071113;28;20041;-67
2022/04/16 15:05:58;;;;;;;3.90;1.52;;;;;;;;;;5071009;28;20044;-67
2022/04/16 15:08:28;;;;;;;4.72;1.38;;;;;;;;;;5070969;28;20420;-66
2022/04/16 15:10:59;;;;;;;4.28;2.13;;;;;;;;;;5071177;28;20049;-69
2022/04/16 15:13:30;;;;;;;3.20;1.30;;;;;;;;;;5028562;28;20053;-66
2022/04/16 15:16:01;;;;;;;3.67;1.23;;;;;;;;;;5008751;28;20621;-67
2022/04/16 15:18:33;;;;;;;5.25;1.55;;;;;;;;;;5009045;28;20073;-67
2022/04/16 15:21:05;;;;;;;5.80;1.50;;;;;;;;;;5008699;28;20054;-67
2022/04/16 15:23:36;;;;;;;3.75;1.50;;;;;;;;;;5008983;28;20054;-66
2022/04/16 15:26:09;;;;;;;3.90;1.23;;;;;;;;;;5009256;28;20058;-67
2022/04/16 15:28:40;;;;;;;3.92;1.33;;;;;;;;;;5009007;28;20058;-67
2022/04/16 15:31:27;;;;;;;2.88;1.20;;;;;;;;;;5008885;28;20057;-66
2022/04/16 15:34:01;;;;;;;4.28;1.50;;;;;;;;;;5008802;28;20054;-67
2022/04/16 15:36:32;;;;;;;5.57;1.25;;;;;;;;;;5011499;28;20065;-67
2022/04/16 15:39:04;;;;;;;2.75;1.40;;;;;;;;;;5012720;28;20077;-66
2022/04/16 15:41:35;;;;;;;3.47;1.13;;;;;;;;;;5012695;28;20068;-66